createdAt,value
2019-03-29T00:00:13.403Z,96860.3
2019-03-29T00:01:15.873Z,96857.6
2019-03-29T00:02:18.624Z,96858.1
2019-03-29T00:03:21.082Z,96854
2019-03-29T00:04:23.292Z,96854.7
2019-03-29T00:05:25.753Z,96855.9
2019-03-29T00:06:28.234Z,96853.9
2019-03-29T00:08:37.024Z,96850.4
2019-03-29T00:09:39.226Z,96847.3
2019-03-29T00:10:41.421Z,96852.1
2019-03-29T00:11:43.652Z,96851.9
2019-03-29T00:12:46.145Z,96853.2
2019-03-29T00:13:49.886Z,96851.8
2019-03-29T00:14:52.470Z,96848.8
2019-03-29T00:15:54.670Z,96847.6
2019-03-29T00:16:56.872Z,96850.9
2019-03-29T00:17:59.106Z,96848.8
2019-03-29T00:19:02.950Z,96846.3
2019-03-29T00:21:10.132Z,96846.1
2019-03-29T00:22:12.600Z,96847.2
2019-03-29T00:23:15.072Z,96843.7
2019-03-29T00:24:17.568Z,96845.7
2019-03-29T00:25:19.448Z,96850.3
2019-03-29T00:26:21.642Z,96849.4
2019-03-29T00:27:24.128Z,96847.3
2019-03-29T00:28:26.330Z,96848.6
2019-03-29T00:29:28.556Z,96848.3
2019-03-29T00:30:32.260Z,96847.9
2019-03-29T00:31:34.738Z,96848.7
2019-03-29T00:32:37.226Z,96843.9
2019-03-29T00:33:39.764Z,96842.1
2019-03-29T00:34:43.180Z,96840.3
2019-03-29T00:35:45.651Z,96838.6
2019-03-29T00:36:47.932Z,96842.2
2019-03-29T00:38:55.390Z,96846.7
2019-03-29T00:39:57.873Z,96843.6
2019-03-29T00:41:00.476Z,96840.9
2019-03-29T00:42:02.950Z,96843.1
2019-03-29T00:43:05.148Z,96840.9
2019-03-29T00:44:07.334Z,96839.5
2019-03-29T00:45:09.264Z,96841.5
2019-03-29T00:46:12.895Z,96834
2019-03-29T00:47:15.363Z,96834.8
2019-03-29T00:48:17.829Z,96838
2019-03-29T00:49:20.304Z,96828.6
2019-03-29T00:50:22.773Z,96832.7
2019-03-29T00:51:26.327Z,96819.2
2019-03-29T00:52:28.794Z,96824.2
2019-03-29T00:53:31.293Z,96821.3
2019-03-29T00:54:33.767Z,96819.1
2019-03-29T00:55:36.234Z,96819.8
2019-03-29T00:56:40.032Z,96819.6
2019-03-29T00:57:42.545Z,96817.8
2019-03-29T00:58:44.759Z,96814.6
2019-03-29T00:59:47.229Z,96811.6
2019-03-29T01:00:49.517Z,96814.7
2019-03-29T01:01:52.318Z,96816
2019-03-29T01:02:55.485Z,96813.2
2019-03-29T01:03:57.685Z,96814
2019-03-29T01:04:59.884Z,96814.2
2019-03-29T01:06:02.366Z,96810.2
2019-03-29T01:07:05.954Z,96812.7
2019-03-29T01:09:13.424Z,96809.1
2019-03-29T01:10:15.896Z,96807.5
2019-03-29T01:11:18.108Z,96809.6
2019-03-29T01:12:20.582Z,96810.4
2019-03-29T01:13:23.056Z,96808.5
2019-03-29T01:14:26.838Z,96809
2019-03-29T01:15:29.312Z,96811.1
2019-03-29T01:16:31.518Z,96809.8
2019-03-29T01:17:33.730Z,96810.8
2019-03-29T01:18:35.932Z,96814.6
2019-03-29T01:19:39.288Z,96813.7
2019-03-29T01:20:41.237Z,96813.6
2019-03-29T01:21:43.163Z,96814.2
2019-03-29T01:22:45.635Z,96814.1
2019-03-29T01:23:47.848Z,96812.2
2019-03-29T01:24:50.039Z,96811.4
2019-03-29T01:25:52.227Z,96813.8
2019-03-29T01:26:54.805Z,96813.9
2019-03-29T01:27:57.010Z,96809
2019-03-29T01:28:59.474Z,96811.2
2019-03-29T01:30:01.958Z,96813.7
2019-03-29T01:31:03.636Z,96811.1
2019-03-29T01:32:05.545Z,96810.3
2019-03-29T01:33:08.758Z,96807.7
2019-03-29T01:34:11.230Z,96802
2019-03-29T01:35:13.704Z,96799.8
2019-03-29T01:36:15.378Z,96803.2
2019-03-29T01:37:17.576Z,96795.5
2019-03-29T01:39:25.040Z,96797.9
2019-03-29T01:40:27.610Z,96796.6
2019-03-29T01:41:30.087Z,96796.7
2019-03-29T01:42:32.301Z,96797.6
2019-03-29T01:43:35.263Z,96794.7
2019-03-29T01:44:38.440Z,96794.8
2019-03-29T01:45:40.930Z,96795.8
2019-03-29T01:46:43.124Z,96794.1
2019-03-29T01:47:45.596Z,96792.1
2019-03-29T01:48:49.498Z,96796.5
2019-03-29T01:49:52.022Z,96795.5
2019-03-29T01:50:54.475Z,96795.4
2019-03-29T01:51:56.662Z,96788.5
2019-03-29T01:52:58.868Z,96791.6
2019-03-29T01:54:01.346Z,96791.9
2019-03-29T01:55:03.830Z,96788.8
2019-03-29T01:56:05.719Z,96791.9
2019-03-29T01:57:08.470Z,96789.9
2019-03-29T01:58:10.940Z,96789.1
2019-03-29T01:59:13.169Z,96790.2
2019-03-29T02:00:15.624Z,96788.1
2019-03-29T02:01:17.825Z,96788.1
2019-03-29T02:02:21.440Z,96785.6
2019-03-29T02:03:23.905Z,96790.6
2019-03-29T02:04:26.120Z,96782.7
2019-03-29T02:05:29.440Z,96784.6
2019-03-29T02:06:31.948Z,96781.8
2019-03-29T02:07:33.883Z,96785.9
2019-03-29T02:08:38.894Z,96786
2019-03-29T02:09:41.080Z,96783.7
2019-03-29T02:10:43.550Z,96784.5
2019-03-29T02:11:45.750Z,96784.1
2019-03-29T02:12:47.690Z,96778.8
2019-03-29T02:13:50.158Z,96781.7
2019-03-29T02:14:53.839Z,96784
2019-03-29T02:15:56.040Z,96782.8
2019-03-29T02:16:57.700Z,96780.4
2019-03-29T02:18:00.190Z,96778.2
2019-03-29T02:19:02.482Z,96777.5
2019-03-29T02:20:04.960Z,96779.8
2019-03-29T02:21:07.444Z,96777.5
2019-03-29T02:22:10.579Z,96779.3
2019-03-29T02:23:12.774Z,96776
2019-03-29T02:24:14.688Z,96773.4
2019-03-29T02:25:17.870Z,96776.6
2019-03-29T02:26:19.775Z,96779.5
2019-03-29T02:27:21.996Z,96777.1
2019-03-29T02:28:24.466Z,96777.1
2019-03-29T02:29:26.948Z,96781.2
2019-03-29T02:30:29.177Z,96782.8
2019-03-29T02:31:36.121Z,96779.8
2019-03-29T02:32:37.771Z,96780.7
2019-03-29T02:33:39.941Z,96781
2019-03-29T02:35:47.890Z,96778.6
2019-03-29T02:36:50.376Z,96779.2
2019-03-29T02:37:52.865Z,96777.3
2019-03-29T02:39:59.793Z,96774.6
2019-03-29T02:41:02.698Z,96774.5
2019-03-29T02:42:05.307Z,96778.4
2019-03-29T02:43:08.114Z,96773.5
2019-03-29T02:44:12.485Z,96773.6
2019-03-29T02:45:14.977Z,96774.4
2019-03-29T02:46:17.457Z,96775.5
2019-03-29T02:47:21.391Z,96771.8
2019-03-29T02:48:24.105Z,96775.8
2019-03-29T02:49:26.321Z,96771.3
2019-03-29T02:50:28.815Z,96771.1
2019-03-29T02:51:33.180Z,96769.1
2019-03-29T02:52:35.763Z,96767.8
2019-03-29T02:53:37.978Z,96768.5
2019-03-29T02:54:40.455Z,96770
2019-03-29T02:55:42.946Z,96767.3
2019-03-29T02:56:45.409Z,96765.3
2019-03-29T02:57:47.649Z,96771
2019-03-29T02:58:50.135Z,96771.1
2019-03-29T02:59:52.603Z,96773.3
2019-03-29T03:00:54.832Z,96771.8
2019-03-29T03:01:57.337Z,96774.9
2019-03-29T03:02:59.805Z,96773.2
2019-03-29T03:04:02.288Z,96771.8
2019-03-29T03:05:04.766Z,96769.7
2019-03-29T03:06:07.230Z,96774.7
2019-03-29T03:07:09.700Z,96775.6
2019-03-29T03:08:12.175Z,96773.9
2019-03-29T03:09:16.302Z,96775
2019-03-29T03:10:18.486Z,96772.6
2019-03-29T03:11:20.678Z,96779.2
2019-03-29T03:12:23.183Z,96778.5
2019-03-29T03:13:25.675Z,96775.2
2019-03-29T03:14:28.171Z,96778.5
2019-03-29T03:15:30.682Z,96776.9
2019-03-29T03:16:32.855Z,96779.8
2019-03-29T03:17:35.307Z,96782.2
2019-03-29T03:18:37.849Z,96785.7
2019-03-29T03:19:40.086Z,96782.5
2019-03-29T03:20:42.577Z,96787.4
2019-03-29T03:21:45.103Z,96781.6
2019-03-29T03:22:47.578Z,96783.9
2019-03-29T03:23:50.061Z,96782.7
2019-03-29T03:24:52.381Z,96780.5
2019-03-29T03:25:54.631Z,96779.9
2019-03-29T03:26:56.897Z,96789.2
2019-03-29T03:27:59.397Z,96780.2
2019-03-29T03:29:01.880Z,96782.9
2019-03-29T03:30:04.079Z,96783.3
2019-03-29T03:31:06.573Z,96778.8
2019-03-29T03:32:08.825Z,96782.2
2019-03-29T03:33:11.067Z,96780.3
2019-03-29T03:34:13.327Z,96781.5
2019-03-29T03:35:15.548Z,96782.7
2019-03-29T03:36:18.047Z,96777.3
2019-03-29T03:37:20.527Z,96780
2019-03-29T03:38:22.747Z,96779
2019-03-29T03:40:30.346Z,96777.8
2019-03-29T03:41:32.636Z,96776.3
2019-03-29T03:42:35.092Z,96776.7
2019-03-29T03:43:37.587Z,96777.9
2019-03-29T03:44:39.802Z,96775.5
2019-03-29T03:45:42.047Z,96772.2
2019-03-29T03:46:44.544Z,96772
2019-03-29T03:47:47.013Z,96774.6
2019-03-29T03:48:49.493Z,96778.1
2019-03-29T03:49:51.957Z,96774.1
2019-03-29T03:50:53.901Z,96777.4
2019-03-29T03:51:56.155Z,96779.3
2019-03-29T03:52:58.617Z,96777.7
2019-03-29T03:54:00.855Z,96777.4
2019-03-29T03:55:03.327Z,96775.6
2019-03-29T03:56:05.797Z,96777.4
2019-03-29T03:57:08.281Z,96776.6
2019-03-29T03:58:10.753Z,96775.4
2019-03-29T03:59:12.960Z,96773.2
2019-03-29T04:00:15.444Z,96772.3
2019-03-29T04:01:17.926Z,96774.9
2019-03-29T04:02:20.157Z,96771.1
2019-03-29T04:03:22.682Z,96766.6
2019-03-29T04:04:25.175Z,96772.1
2019-03-29T04:05:27.656Z,96770.9
2019-03-29T04:06:30.203Z,96772
2019-03-29T04:07:32.683Z,96771.7
2019-03-29T04:08:35.158Z,96769.7
2019-03-29T04:10:43.837Z,96769.1
2019-03-29T04:11:46.437Z,96769.4
2019-03-29T04:12:48.895Z,96771.9
2019-03-29T04:13:51.376Z,96768.1
2019-03-29T04:14:53.951Z,96772.5
2019-03-29T04:15:56.413Z,96769.1
2019-03-29T04:16:58.913Z,96771
2019-03-29T04:18:01.387Z,96772.8
2019-03-29T04:19:04.007Z,96773.6
2019-03-29T04:20:06.498Z,96774
2019-03-29T04:21:08.705Z,96774.5
2019-03-29T04:22:10.903Z,96771.5
2019-03-29T04:23:12.928Z,96772.7
2019-03-29T04:24:15.404Z,96769.3
2019-03-29T04:25:17.890Z,96773.2
2019-03-29T04:26:19.816Z,96774
2019-03-29T04:27:22.079Z,96773.3
2019-03-29T04:28:24.566Z,96772.5
2019-03-29T04:29:27.165Z,96766.6
2019-03-29T04:30:29.511Z,96769.1
2019-03-29T04:31:32.024Z,96768
2019-03-29T04:32:34.522Z,96764
2019-03-29T04:33:36.755Z,96764.7
2019-03-29T04:34:39.245Z,96760.8
2019-03-29T04:35:41.436Z,96764.4
2019-03-29T04:36:43.916Z,96762.5
2019-03-29T04:37:46.409Z,96765
2019-03-29T04:38:48.876Z,96763.3
2019-03-29T04:40:56.093Z,96761.9
2019-03-29T04:41:58.596Z,96761.3
2019-03-29T04:43:00.814Z,96761.2
2019-03-29T04:44:03.303Z,96760.2
2019-03-29T04:45:05.810Z,96759
2019-03-29T04:46:08.746Z,96756.5
2019-03-29T04:47:11.235Z,96756.6
2019-03-29T04:48:13.714Z,96754.1
2019-03-29T04:49:16.192Z,96756.9
2019-03-29T04:50:18.519Z,96757
2019-03-29T04:51:20.728Z,96759
2019-03-29T04:52:23.194Z,96760.5
2019-03-29T04:53:25.663Z,96757.1
2019-03-29T04:54:27.882Z,96753.6
2019-03-29T04:55:30.043Z,96751.7
2019-03-29T04:56:32.504Z,96747.6
2019-03-29T04:57:34.715Z,96747.9
2019-03-29T04:58:36.921Z,96754.2
2019-03-29T04:59:39.135Z,96752.6
2019-03-29T05:00:41.340Z,96751.9
2019-03-29T05:01:43.244Z,96750.9
2019-03-29T05:02:45.445Z,96751.7
2019-03-29T05:03:47.910Z,96748.3
2019-03-29T05:04:50.120Z,96752.5
2019-03-29T05:05:52.612Z,96750.6
2019-03-29T05:06:55.088Z,96752.3
2019-03-29T05:07:57.625Z,96757.4
2019-03-29T05:08:59.845Z,96754.9
2019-03-29T05:10:02.335Z,96753.6
2019-03-29T05:11:04.815Z,96751.8
2019-03-29T05:12:07.395Z,96753.5
2019-03-29T05:13:09.867Z,96751.9
2019-03-29T05:14:12.085Z,96752.1
2019-03-29T05:15:14.570Z,96751.9
2019-03-29T05:16:16.756Z,96752.6
2019-03-29T05:17:18.702Z,96750.5
2019-03-29T05:18:20.929Z,96747.4
2019-03-29T05:19:23.215Z,96750.8
2019-03-29T05:20:25.690Z,96748.1
2019-03-29T05:21:27.628Z,96746.9
2019-03-29T05:22:30.107Z,96750.9
2019-03-29T05:23:32.315Z,96750
2019-03-29T05:24:34.208Z,96749.9
2019-03-29T05:25:36.676Z,96752.3
2019-03-29T05:26:38.846Z,96753.1
2019-03-29T05:27:41.315Z,96752.6
2019-03-29T05:28:43.535Z,96752.5
2019-03-29T05:29:46.000Z,96753.9
2019-03-29T05:30:48.253Z,96758.1
2019-03-29T05:31:50.190Z,96749.3
2019-03-29T05:32:56.864Z,96753.5
2019-03-29T05:33:59.107Z,96757.9
2019-03-29T05:35:01.318Z,96755.1
2019-03-29T05:36:03.531Z,96760.1
2019-03-29T05:37:05.734Z,96758.7
2019-03-29T05:38:07.693Z,96756.9
2019-03-29T05:39:10.179Z,96756.1
2019-03-29T05:40:12.642Z,96759.4
2019-03-29T05:41:15.127Z,96759.1
2019-03-29T05:42:17.611Z,96756.9
2019-03-29T05:43:19.519Z,96755.3
2019-03-29T05:44:21.467Z,96759.4
2019-03-29T05:45:23.938Z,96757
2019-03-29T05:46:26.413Z,96757.1
2019-03-29T05:47:28.901Z,96762.2
2019-03-29T05:48:31.131Z,96757.3
2019-03-29T05:49:33.020Z,96763.8
2019-03-29T05:51:40.286Z,96761.3
2019-03-29T05:52:42.771Z,96761.1
2019-03-29T05:53:44.977Z,96756
2019-03-29T05:54:47.189Z,96757.3
2019-03-29T05:55:50.004Z,96755.1
2019-03-29T05:56:52.482Z,96752.6
2019-03-29T05:57:54.962Z,96758.5
2019-03-29T05:58:57.436Z,96757.7
2019-03-29T05:59:59.909Z,96759.3
2019-03-29T06:01:02.065Z,96759.3
2019-03-29T06:02:04.545Z,96757.7
2019-03-29T06:03:09.871Z,96760.9
2019-03-29T06:04:13.196Z,96754.6
2019-03-29T06:05:15.373Z,96757.8
2019-03-29T06:06:17.869Z,96754.1
2019-03-29T06:07:20.063Z,96751.2
2019-03-29T06:08:22.010Z,96750.8
2019-03-29T06:09:24.479Z,96746
2019-03-29T06:10:26.953Z,96743.1
2019-03-29T06:11:29.155Z,96745.3
2019-03-29T06:12:31.206Z,96748.6
2019-03-29T06:13:33.724Z,96746.2
2019-03-29T06:14:36.228Z,96751.4
2019-03-29T06:15:38.704Z,96752.2
2019-03-29T06:16:40.899Z,96750
2019-03-29T06:18:48.117Z,96751.6
2019-03-29T06:19:50.593Z,96754.2
2019-03-29T06:20:52.521Z,96753.4
2019-03-29T06:21:54.991Z,96755.2
2019-03-29T06:22:57.497Z,96756.3
2019-03-29T06:23:59.967Z,96754.3
2019-03-29T06:25:02.439Z,96757.6
2019-03-29T06:26:04.941Z,96759.6
2019-03-29T06:27:07.161Z,96765
2019-03-29T06:28:09.355Z,96769
2019-03-29T06:29:11.848Z,96771.6
2019-03-29T06:30:14.047Z,96763.6
2019-03-29T06:31:16.520Z,96768.2
2019-03-29T06:32:18.434Z,96768.5
2019-03-29T06:33:20.903Z,96768.8
2019-03-29T06:34:23.114Z,96768.5
2019-03-29T06:35:25.274Z,96763.3
2019-03-29T06:36:27.760Z,96768.3
2019-03-29T06:37:30.237Z,96765.9
2019-03-29T06:38:32.719Z,96771.4
2019-03-29T06:39:35.186Z,96770.8
2019-03-29T06:40:37.387Z,96765.9
2019-03-29T06:41:39.301Z,96767.8
2019-03-29T06:42:41.779Z,96761.6
2019-03-29T06:43:43.973Z,96771.5
2019-03-29T06:44:46.446Z,96771
2019-03-29T06:45:49.895Z,96770.5
2019-03-29T06:46:52.094Z,96774.3
2019-03-29T06:47:54.609Z,96772.6
2019-03-29T06:48:57.093Z,96776.3
2019-03-29T06:49:59.294Z,96770.2
2019-03-29T06:51:01.765Z,96775.1
2019-03-29T06:52:03.967Z,96770.9
2019-03-29T06:53:06.458Z,96771.8
2019-03-29T06:54:08.407Z,96772.1
2019-03-29T06:55:10.875Z,96771.9
2019-03-29T06:56:13.071Z,96766.4
2019-03-29T06:57:15.565Z,96772
2019-03-29T06:58:18.053Z,96773.6
2019-03-29T06:59:19.729Z,96775.2
2019-03-29T07:00:21.929Z,96765.2
2019-03-29T07:01:24.401Z,96768.8
2019-03-29T07:02:26.863Z,96770.8
2019-03-29T07:03:29.338Z,96768
2019-03-29T07:04:31.525Z,96770.5
2019-03-29T07:05:33.998Z,96764.6
2019-03-29T07:06:36.477Z,96763.8
2019-03-29T07:07:38.659Z,96766.3
2019-03-29T07:08:41.139Z,96761.4
2019-03-29T07:09:43.342Z,96754.3
2019-03-29T07:10:45.821Z,96762.3
2019-03-29T07:11:48.308Z,96758.3
2019-03-29T07:12:50.793Z,96760.3
2019-03-29T07:14:57.994Z,96757.6
2019-03-29T07:16:00.472Z,96763.1
2019-03-29T07:17:02.950Z,96762.7
2019-03-29T07:18:05.425Z,96761.4
2019-03-29T07:19:07.632Z,96762.6
2019-03-29T07:20:10.112Z,96759.3
2019-03-29T07:22:17.305Z,96760.5
2019-03-29T07:23:19.523Z,96763.4
2019-03-29T07:24:22.030Z,96758.7
2019-03-29T07:25:24.489Z,96763.9
2019-03-29T07:26:26.961Z,96751.4
2019-03-29T07:27:38.723Z,96755.9
2019-03-29T07:28:35.630Z,96756.4
2019-03-29T07:29:37.822Z,96755.2
2019-03-29T07:30:40.287Z,96764.1
2019-03-29T07:31:42.787Z,96762.9
2019-03-29T07:32:44.959Z,96757.3
2019-03-29T07:33:46.892Z,96750.7
2019-03-29T07:34:50.592Z,96749.4
2019-03-29T07:35:52.781Z,96747.9
2019-03-29T07:36:54.962Z,96749.5
2019-03-29T07:37:57.437Z,96745.7
2019-03-29T07:38:59.922Z,96746.1
2019-03-29T07:40:02.098Z,96741.9
2019-03-29T07:41:04.566Z,96739.5
2019-03-29T07:42:07.046Z,96744.6
2019-03-29T07:43:09.622Z,96741.7
2019-03-29T07:44:11.864Z,96741.8
2019-03-29T07:45:14.339Z,96745.5
2019-03-29T07:46:16.801Z,96745.5
2019-03-29T07:47:19.272Z,96742.5
2019-03-29T07:48:21.742Z,96744.4
2019-03-29T07:49:23.936Z,96745.3
2019-03-29T07:50:25.875Z,96746.1
2019-03-29T07:51:28.356Z,96741
2019-03-29T07:52:30.833Z,96741.6
2019-03-29T07:53:33.305Z,96739.3
2019-03-29T07:54:35.470Z,96742.8
2019-03-29T07:55:39.027Z,96742.5
2019-03-29T07:56:41.222Z,96743.2
2019-03-29T07:57:43.699Z,96739.2
2019-03-29T07:58:46.157Z,96742.9
2019-03-29T07:59:48.634Z,96741.8
2019-03-29T08:00:52.533Z,96737.9
2019-03-29T08:01:54.716Z,96739.2
2019-03-29T08:02:57.307Z,96742.6
2019-03-29T08:03:59.801Z,96739.2
2019-03-29T08:05:02.013Z,96739.5
2019-03-29T08:06:04.486Z,96739.7
2019-03-29T08:07:07.797Z,96734.9
2019-03-29T08:12:29.776Z,96731.1
2019-03-29T08:13:32.257Z,96730.8
2019-03-29T08:14:34.442Z,96727.5
2019-03-29T08:15:36.922Z,96730.7
2019-03-29T08:16:39.401Z,96731.8
2019-03-29T08:17:41.603Z,96730.1
2019-03-29T08:18:43.802Z,96731
2019-03-29T08:19:45.993Z,96724.9
2019-03-29T08:20:48.166Z,96728.9
2019-03-29T08:21:50.384Z,96730.1
2019-03-29T08:22:53.131Z,96729
2019-03-29T08:23:55.685Z,96729.2
2019-03-29T08:26:03.161Z,96729.1
2019-03-29T08:27:05.659Z,96733.6
2019-03-29T08:28:08.139Z,96731.2
2019-03-29T08:29:10.528Z,96732.6
2019-03-29T08:30:12.730Z,96734.8
2019-03-29T08:31:14.953Z,96731.4
2019-03-29T08:32:17.425Z,96733.7
2019-03-29T08:33:19.104Z,96730.4
2019-03-29T08:34:21.603Z,96737.3
2019-03-29T08:35:24.083Z,96732.1
2019-03-29T08:36:26.284Z,96733.2
2019-03-29T08:37:28.753Z,96732.1
2019-03-29T08:38:30.948Z,96737.9
2019-03-29T08:39:32.872Z,96734.6
2019-03-29T08:40:35.348Z,96733.1
2019-03-29T08:41:37.824Z,96736.2
2019-03-29T08:42:40.298Z,96734.9
2019-03-29T08:43:42.766Z,96735.6
2019-03-29T08:44:45.253Z,96740.1
2019-03-29T08:45:47.165Z,96739.4
2019-03-29T08:46:49.639Z,96742.2
2019-03-29T08:47:52.105Z,96740.5
2019-03-29T08:48:54.585Z,96740.2
2019-03-29T08:49:56.785Z,96735.8
2019-03-29T08:50:59.271Z,96734.4
2019-03-29T08:52:01.749Z,96732.8
2019-03-29T08:53:04.331Z,96738.7
2019-03-29T08:54:06.797Z,96737.9
2019-03-29T08:55:09.031Z,96740.2
2019-03-29T08:56:11.501Z,96733.4
2019-03-29T08:57:13.973Z,96739
2019-03-29T08:58:16.444Z,96737.4
2019-03-29T08:59:19.345Z,96732.1
2019-03-29T09:00:21.811Z,96738.6
2019-03-29T09:01:24.293Z,96735.1
2019-03-29T09:02:26.955Z,96730.6
2019-03-29T09:03:29.433Z,96735
2019-03-29T09:04:31.907Z,96722.8
2019-03-29T09:05:34.104Z,96724.1
2019-03-29T09:06:36.117Z,96727.1
2019-03-29T09:08:43.591Z,96720.9
2019-03-29T09:09:47.679Z,96719.2
2019-03-29T09:10:50.172Z,96719.4
2019-03-29T09:11:52.372Z,96723.2
2019-03-29T09:12:54.861Z,96721.1
2019-03-29T09:13:57.361Z,96717.1
2019-03-29T09:15:03.146Z,96715.6
2019-03-29T09:16:05.999Z,96718.1
2019-03-29T09:17:08.526Z,96715.6
2019-03-29T09:18:10.704Z,96720.4
2019-03-29T09:19:13.179Z,96721.6
2019-03-29T09:20:15.691Z,96724.8
2019-03-29T09:21:17.611Z,96721.1
2019-03-29T09:22:20.089Z,96722.9
2019-03-29T09:23:22.289Z,96718.9
2019-03-29T09:24:24.761Z,96710.2
2019-03-29T09:25:26.968Z,96715.4
2019-03-29T09:26:29.174Z,96716.8
2019-03-29T09:27:33.566Z,96712.3
2019-03-29T09:28:36.036Z,96716
2019-03-29T09:29:38.295Z,96713
2019-03-29T09:30:40.226Z,96710.3
2019-03-29T09:31:42.714Z,96712.1
2019-03-29T09:32:44.915Z,96712.8
2019-03-29T09:33:47.112Z,96715.4
2019-03-29T09:34:49.591Z,96708.9
2019-03-29T09:35:52.058Z,96715.4
2019-03-29T09:36:54.243Z,96711.8
2019-03-29T09:37:58.189Z,96714.4
2019-03-29T09:39:00.668Z,96716.3
2019-03-29T09:40:02.885Z,96712.5
2019-03-29T09:41:05.371Z,96715.4
2019-03-29T09:43:12.845Z,96714.6
2019-03-29T09:44:15.072Z,96704.8
2019-03-29T09:45:17.558Z,96709.7
2019-03-29T09:46:20.026Z,96709.4
2019-03-29T09:47:22.495Z,96712.1
2019-03-29T09:48:24.961Z,96706.3
2019-03-29T09:49:27.174Z,96709.7
2019-03-29T09:50:29.645Z,96711
2019-03-29T09:51:32.129Z,96709.1
2019-03-29T09:52:38.776Z,96706.1
2019-03-29T09:53:42.771Z,96705.4
2019-03-29T09:54:45.327Z,96705.8
2019-03-29T09:55:47.828Z,96703.6
2019-03-29T09:56:50.077Z,96699
2019-03-29T09:57:52.572Z,96700.1
2019-03-29T09:58:54.743Z,96701
2019-03-29T09:59:57.226Z,96706.7
2019-03-29T10:00:59.703Z,96694
2019-03-29T10:02:02.463Z,96701.3
2019-03-29T10:03:04.936Z,96704
2019-03-29T10:04:07.417Z,96707
2019-03-29T10:05:09.345Z,96701.8
2019-03-29T10:06:15.094Z,96705.5
2019-03-29T10:07:18.267Z,96700.2
2019-03-29T10:08:20.847Z,96696.4
2019-03-29T10:09:23.040Z,96697.8
2019-03-29T10:10:25.516Z,96689.9
2019-03-29T10:11:27.976Z,96687.9
2019-03-29T10:13:35.441Z,96684.1
2019-03-29T10:14:37.649Z,96689.3
2019-03-29T10:15:40.116Z,96692
2019-03-29T10:16:42.338Z,96691.7
2019-03-29T10:17:44.805Z,96691.7
2019-03-29T10:18:47.283Z,96690.3
2019-03-29T10:19:51.424Z,96688.2
2019-03-29T10:20:53.647Z,96684.9
2019-03-29T10:21:56.125Z,96686
2019-03-29T10:22:58.367Z,96684.5
2019-03-29T10:24:00.589Z,96686.5
2019-03-29T10:26:09.660Z,96680.9
2019-03-29T10:27:11.866Z,96681.1
2019-03-29T10:28:14.086Z,96680.4
2019-03-29T10:29:16.293Z,96677.9
2019-03-29T10:30:18.757Z,96677.9
2019-03-29T10:32:26.208Z,96680.9
2019-03-29T10:33:28.708Z,96671.4
2019-03-29T10:34:30.921Z,96672.4
2019-03-29T10:35:33.135Z,96674
2019-03-29T10:36:35.611Z,96673.7
2019-03-29T10:37:38.083Z,96674.6
2019-03-29T10:38:40.569Z,96675.5
2019-03-29T10:39:43.046Z,96678.8
2019-03-29T10:40:45.243Z,96678.1
2019-03-29T10:41:47.705Z,96675.9
2019-03-29T10:43:54.925Z,96673.5
2019-03-29T10:44:57.132Z,96675.5
2019-03-29T10:45:59.349Z,96666.1
2019-03-29T10:47:01.814Z,96663
2019-03-29T10:48:04.297Z,96660.2
2019-03-29T10:49:06.653Z,96657.6
2019-03-29T10:50:09.003Z,96653.4
2019-03-29T10:51:11.262Z,96660
2019-03-29T10:52:13.720Z,96662.6
2019-03-29T10:53:15.916Z,96656.9
2019-03-29T10:54:18.382Z,96652.9
2019-03-29T10:55:20.863Z,96658.6
2019-03-29T10:57:28.328Z,96654.9
2019-03-29T10:58:30.824Z,96655
2019-03-29T10:59:33.040Z,96654.6
2019-03-29T11:00:35.508Z,96663.9
2019-03-29T11:01:37.425Z,96663.9
2019-03-29T11:02:39.896Z,96662.9
2019-03-29T11:03:42.383Z,96663.8
2019-03-29T11:04:44.323Z,96660.1
2019-03-29T11:05:46.805Z,96661.6
2019-03-29T11:06:48.715Z,96664.8
2019-03-29T11:07:51.210Z,96655.4
2019-03-29T11:08:53.674Z,96648.2
2019-03-29T11:09:56.159Z,96656.9
2019-03-29T11:10:58.073Z,96651.4
2019-03-29T11:12:00.551Z,96650.9
2019-03-29T11:14:07.735Z,96645
2019-03-29T11:15:09.915Z,96657.7
2019-03-29T11:16:12.406Z,96649
2019-03-29T11:17:14.942Z,96649.2
2019-03-29T11:18:17.436Z,96642
2019-03-29T11:19:19.906Z,96642.2
2019-03-29T11:20:22.399Z,96640.3
2019-03-29T11:21:24.874Z,96638.3
2019-03-29T11:22:27.071Z,96634.1
2019-03-29T11:23:29.269Z,96639.3
2019-03-29T11:24:31.747Z,96652.2
2019-03-29T11:25:33.938Z,96651.4
2019-03-29T11:26:36.441Z,96648.7
2019-03-29T11:27:38.920Z,96641.9
2019-03-29T11:28:41.142Z,96638.2
2019-03-29T11:29:43.616Z,96633.6
2019-03-29T11:30:46.092Z,96638.7
2019-03-29T11:31:48.281Z,96641.3
2019-03-29T11:32:50.465Z,96635.5
2019-03-29T11:33:52.934Z,96637.1
2019-03-29T11:34:55.438Z,96639.4
2019-03-29T11:35:57.916Z,96646.1
2019-03-29T11:37:00.099Z,96638.4
2019-03-29T11:38:02.315Z,96630.9
2019-03-29T11:39:04.560Z,96632.1
2019-03-29T11:40:06.757Z,96633.5
2019-03-29T11:41:08.702Z,96634.5
2019-03-29T11:42:11.199Z,96634.6
2019-03-29T11:44:18.655Z,96633.8
2019-03-29T11:45:21.134Z,96632.8
2019-03-29T11:46:23.624Z,96625.1
2019-03-29T11:47:26.092Z,96631.6
2019-03-29T11:49:33.562Z,96635.5
2019-03-29T11:50:35.494Z,96631.9
2019-03-29T11:51:37.405Z,96630.7
2019-03-29T11:52:39.031Z,96631
2019-03-29T11:53:56.176Z,96631.1
2019-03-29T11:54:58.650Z,96621.4
2019-03-29T11:56:01.123Z,96622.6
2019-03-29T11:57:03.321Z,96619.8
2019-03-29T11:58:05.800Z,96617.6
2019-03-29T11:59:08.036Z,96615.1
2019-03-29T12:00:10.509Z,96622.2
2019-03-29T12:01:12.975Z,96629.6
2019-03-29T12:02:15.472Z,96625.3
2019-03-29T12:03:22.394Z,96624.2
2019-03-29T12:04:24.968Z,96621
2019-03-29T12:05:27.141Z,96619.3
2019-03-29T12:06:29.351Z,96619.5
2019-03-29T12:07:31.285Z,96617.3
2019-03-29T12:08:33.764Z,96616.5
2019-03-29T12:09:36.235Z,96613.6
2019-03-29T12:10:38.169Z,96611.4
2019-03-29T12:11:40.130Z,96614.8
2019-03-29T12:12:42.305Z,96609.2
2019-03-29T12:13:44.784Z,96610.3
2019-03-29T12:14:47.266Z,96605.9
2019-03-29T12:15:49.735Z,96610.9
2019-03-29T12:16:52.209Z,96612.4
2019-03-29T12:17:54.687Z,96610.4
2019-03-29T12:18:56.865Z,96608
2019-03-29T12:19:59.338Z,96608.6
2019-03-29T12:21:01.826Z,96607.2
2019-03-29T12:22:04.302Z,96602
2019-03-29T12:23:06.793Z,96597.6
2019-03-29T12:24:09.285Z,96590
2019-03-29T12:25:11.793Z,96598.7
2019-03-29T12:26:14.265Z,96603.3
2019-03-29T12:27:16.743Z,96598.2
2019-03-29T12:28:18.964Z,96601.6
2019-03-29T12:29:21.177Z,96597.8
2019-03-29T12:31:28.639Z,96599.8
2019-03-29T12:32:30.868Z,96600.1
2019-03-29T12:33:32.836Z,96598
2019-03-29T12:34:35.044Z,96597.9
2019-03-29T12:35:37.589Z,96593
2019-03-29T12:36:39.811Z,96592.3
2019-03-29T12:37:42.309Z,96592.4
2019-03-29T12:38:44.527Z,96589.2
2019-03-29T12:39:46.766Z,96588.4
2019-03-29T12:40:49.261Z,96593.3
2019-03-29T12:41:51.735Z,96593.8
2019-03-29T12:42:54.051Z,96593.8
2019-03-29T12:43:57.695Z,96594.9
2019-03-29T12:45:00.360Z,96594.7
2019-03-29T12:46:02.308Z,96590
2019-03-29T12:47:04.784Z,96589.6
2019-03-29T12:48:07.272Z,96589.5
2019-03-29T12:49:09.773Z,96591.7
2019-03-29T12:50:11.944Z,96590.1
2019-03-29T12:51:14.414Z,96587.3
2019-03-29T12:52:16.892Z,96590.8
2019-03-29T12:53:19.384Z,96583.3
2019-03-29T12:54:21.997Z,96586.7
2019-03-29T12:55:24.570Z,96585.9
2019-03-29T12:56:27.128Z,96584.2
2019-03-29T12:57:28.774Z,96589.8
2019-03-29T12:58:31.256Z,96589.1
2019-03-29T12:59:34.631Z,96586.1
2019-03-29T13:00:37.111Z,96581.6
2019-03-29T13:01:41.679Z,96580.2
2019-03-29T13:02:44.164Z,96584.8
2019-03-29T13:03:46.446Z,96588.7
2019-03-29T13:04:49.368Z,96584.6
2019-03-29T13:05:51.927Z,96584.5
2019-03-29T13:06:54.129Z,96582.3
2019-03-29T13:07:56.594Z,96592.5
2019-03-29T13:08:58.794Z,96588.1
2019-03-29T13:10:01.012Z,96580
2019-03-29T13:11:03.481Z,96582.2
2019-03-29T13:12:05.969Z,96576
2019-03-29T13:13:08.165Z,96569.3